Historyczne dane pomiarowe

Dodano dane terminowe – wersja testowa.

Dane z okresu 1951-2019

Wersja bazy: 1.34 [2019-03-16, lista zmian], aktualizacja planowana na 2019-04-15

Dane meteo z obszaru Polski uzyskane na podstawie danych udostępnionych przez Instytut Meteorologii i Gospodarki Wodnej – Państwowy Instytut Badawczy.

 

Wybierz Datę:    

       

TemperaturaWilgotnośćWiatrCiśnienieOpadyŚniegCzas trwania zjawisk
 Stacja t tx tn tng RH VA  wxwx mslp ppp RRR   cm mm wxwxwxwxwxwxwx
1999-08-14 16.6 21.9 12.1- 82.8- 3.3 2.3---- 0.5------------
1999-08-13 17.0 21.8 12.8- 78.3- 4.3 3.3---- 4.6------------
1999-08-12 16.6 22.6 11.2- 87.5- 3.7 2.7---- 0.0------------
1999-08-11 18.5 24.3 14.5- 84.8- 6.0 2.0---- 0.0------------
1999-08-10 20.3 28.0 14.9- 79.0- 5.7 2.0---- 1.0------------
1999-08-09 20.9 29.6 16.6- 83.8- 6.0 1.7---- 3.6------------
1999-08-08 23.4 30.1 16.9- 69.8- 3.7 0.7---- 4.9------------
1999-08-07 21.1 29.0 10.9- 67.8- 3.0 2.3---- 0.4------------
1999-08-06 20.8 30.1 9.2- 57.0- 2.7 2.0---- 0.0------------
1999-08-05 20.3 28.4 9.6- 56.0- 3.3 1.7---- 0.0------------
1999-08-04 19.1 27.6 8.3- 56.0- 1.7 1.7---- 0.0------------
1999-08-03 20.1 27.8 10.0- 52.3- 2.7 2.0---- 0.0------------
1999-08-02 18.6 27.3 11.0- 70.8- 4.0 2.0---- 0.0------------
1999-08-01 19.3 26.4 11.1- 63.5- 2.7 2.0---- 0.0------------
1999-07-31 21.0 28.9 11.3- 90.5- 2.3 3.3---- 0.0------------
1999-07-30 19.1 27.4 10.3- 97.0- 5.0 2.7---- 0.0------------
1999-07-29 18.6 26.4 9.1- 94.5- 3.7 2.7---- 0.0------------
1999-07-28 17.7 25.5 11.1- 95.3- 3.7 3.3---- 0.0------------
1999-07-27 16.7 22.9 11.3- 95.0- 4.3 2.7---- 0.0------------
1999-07-26 19.6 26.4 15.1- 95.8- 3.0 2.7---- 0.0------------
1999-07-25 19.3 26.6 14.0- 97.3- 4.0 1.3---- 0.0------------
1999-07-24 18.2 22.6 14.0- 97.3- 3.3 1.7---- 0.5------------
1999-07-23 18.1 24.0 13.7- 93.5- 2.0 1.3---- 0.0------------
1999-07-22 19.6 26.0 15.9- 96.0- 2.7 2.0---- 0.0------------
1999-07-21 23.3 29.4 18.5- 93.8- 3.3 1.7---- 0.0------------
1999-07-20 24.4 32.2 15.0- 93.8- 3.0 1.7---- 0.0------------
1999-07-19 20.6 28.2 10.8- 98.8- 4.0 1.3---- 0.0------------
1999-07-18 19.8 27.8 10.5- 97.0- 3.0 1.0---- 0.8------------
1999-07-17 18.0 24.5 10.6- 94.8- 2.7 0.7---- 1.1------------
1999-07-16 17.5 22.6 11.9- 96.3- 3.3 1.7---- 0.0------------
1999-07-15 20.1 33.1 10.5- 94.5- 4.3 2.0---- 13.4------------
1999-07-14 23.2 28.4 18.7- 95.3- 3.7 2.7---- 8.3------------
1999-07-13 23.3 30.6 14.2- 96.5- 2.0 2.3---- 0.0------------
1999-07-12 24.0 29.8 17.1- 97.0- 3.7 2.3---- 0.0------------
1999-07-11 22.3 29.2 13.4- 93.8- 2.3 1.3---- 0.0------------
1999-07-10 21.6 27.1 14.2- 97.0- 2.3 3.3---- 0.0------------
1999-07-09 19.1 23.7 14.6- 96.0- 2.7 5.3---- 0.0------------
1999-07-08 18.2 22.0 15.7- 97.0- 7.0 1.7---- 30.8------------
1999-07-07 19.5 24.4 16.1- 94.5- 3.0 2.7---- 0.0------------
1999-07-06 25.3 31.4 20.5- 96.3- 4.0 3.0---- 15.7------------
1999-07-05 26.8 34.8 18.0- 95.8- 3.0 3.3---- 0.0------------
1999-07-04 25.0 31.9 17.1- 84.8- 1.3 0.7---- 0.0------------
1999-07-03 21.4 27.8 14.0- 95.0- 3.0 1.0---- 0.0------------
1999-07-02 18.9 24.4 14.8- 92.8- 2.3 1.7---- 0.0------------
1999-07-01 20.6 26.4 14.1- 94.3- 3.3 0.7---- 4.9------------
1999-06-30 20.5 26.3 12.8- 94.5- 1.7 0.7---- 0.0------------
1999-06-29 19.9 25.2 13.9- 93.8- 2.3 1.0---- 0.0------------
1999-06-28 20.0 24.1 16.6- 92.8- 2.3 2.3---- 0.5------------
1999-06-27 20.1 27.9 9.2- 94.3- 2.3 2.3---- 0.0------------
1999-06-26 14.9 20.4 9.1- 96.8- 4.0 1.7---- 0.0------------
1999-06-25 13.1 17.2 10.0- 93.0- 4.3 1.7---- 0.4------------
1999-06-24 12.5 19.5 6.7- 96.5- 3.3 2.7---- 0.0------------
1999-06-23 11.4 14.1 8.4- 94.5- 7.3 2.3---- 1.4------------
1999-06-22 11.6 14.1 10.2- 94.5- 7.0 3.7---- 9.8------------
1999-06-21 17.1 22.1 14.0- 94.5- 4.7 2.3---- 1.2------------
1999-06-20 19.8 24.6 16.0- 95.3- 3.7 1.3---- 0.0------------
1999-06-19 20.7 25.4 15.6- 94.0- 4.3 2.0---- 5.0------------
1999-06-18 18.2 24.0 13.3- 97.0- 4.3 1.3---- 0.0------------
1999-06-17 19.2 24.3 14.4- 94.8- 4.7 1.3---- 0.0------------
1999-06-16 18.0 22.9 14.0- 91.8- 5.3 2.3---- 0.0------------
444.3 ms

 

Źródłem pochodzenia danych jest Instytut Meteorologii i Gospodarki Wodnej – Państwowy Instytut Badawczy. Dane Instytutu Meteorologii i Gospodarki Wodnej – Państwowego Instytutu Badawczego zostały przetworzone.

Dane źródłowe można odnaleźć na stronie https://dane.imgw.pl